createdAt,value
2018-08-16T00:00:44.706Z,7.22
2018-08-16T00:03:12.800Z,7.25
2018-08-16T00:05:40.923Z,6.65
2018-08-16T00:08:09.004Z,6.85
2018-08-16T00:10:37.142Z,7.10
2018-08-16T00:13:05.218Z,6.87
2018-08-16T00:15:33.276Z,6.08
2018-08-16T00:18:01.394Z,8.95
2018-08-16T00:20:29.577Z,8.40
2018-08-16T00:22:57.656Z,7.67
2018-08-16T00:25:25.730Z,6.12
2018-08-16T00:27:53.849Z,6.58
2018-08-16T00:30:21.919Z,6.50
2018-08-16T00:32:50.101Z,9.15
2018-08-16T00:35:18.147Z,6.25
2018-08-16T00:37:46.232Z,8.88
2018-08-16T00:40:15.733Z,8.70
2018-08-16T00:42:43.813Z,6.95
2018-08-16T00:45:12.431Z,7.55
2018-08-16T00:47:40.556Z,8.43
2018-08-16T00:50:09.941Z,8.43
2018-08-16T00:52:38.162Z,8.55
2018-08-16T00:55:07.053Z,7.72
2018-08-16T00:57:35.476Z,6.17
2018-08-16T01:00:04.146Z,8.05
2018-08-16T01:02:32.212Z,14.10
2018-08-16T01:05:00.301Z,8.45
2018-08-16T01:07:28.380Z,7.25
2018-08-16T01:09:56.464Z,9.15
2018-08-16T01:12:24.538Z,9.10
2018-08-16T01:14:52.788Z,10.68
2018-08-16T01:17:20.837Z,8.43
2018-08-16T01:19:48.877Z,11.20
2018-08-16T01:22:17.017Z,7.97
2018-08-16T01:24:45.056Z,6.62
2018-08-16T01:27:13.170Z,10.13
2018-08-16T01:29:41.205Z,6.22
2018-08-16T01:32:09.337Z,7.08
2018-08-16T01:34:37.413Z,8.23
2018-08-16T01:37:05.493Z,8.08
2018-08-16T01:39:33.613Z,8.08
2018-08-16T01:42:01.689Z,8.15
2018-08-16T01:44:29.740Z,11.73
2018-08-16T01:46:57.808Z,7.70
2018-08-16T01:49:33.477Z,11.15
2018-08-16T01:52:01.612Z,10.15
2018-08-16T01:54:30.154Z,9.50
2018-08-16T01:56:59.132Z,7.65
2018-08-16T01:59:27.216Z,8.80
2018-08-16T02:01:55.273Z,9.45
2018-08-16T02:04:23.371Z,8.40
2018-08-16T02:06:51.968Z,7.92
2018-08-16T02:09:20.676Z,11.68
2018-08-16T02:11:48.768Z,8.28
2018-08-16T02:14:17.156Z,7.83
2018-08-16T02:16:45.258Z,8.55
2018-08-16T02:19:13.314Z,6.03
2018-08-16T02:21:41.393Z,8.68
2018-08-16T02:24:09.453Z,6.92
2018-08-16T02:26:37.509Z,8.05
2018-08-16T02:29:05.561Z,7.17
2018-08-16T02:31:33.607Z,9.70
2018-08-16T02:34:01.676Z,9.98
2018-08-16T02:36:29.728Z,11.25
2018-08-16T02:38:57.798Z,10.35
2018-08-16T02:41:25.846Z,9.78
2018-08-16T02:43:53.937Z,9.60
2018-08-16T02:46:22.034Z,12.98
2018-08-16T02:48:50.118Z,8.93
2018-08-16T02:51:18.165Z,9.68
2018-08-16T02:53:46.317Z,12.00
2018-08-16T02:56:14.372Z,17.30
2018-08-16T02:58:42.433Z,11.03
2018-08-16T03:01:10.474Z,10.08
2018-08-16T03:03:38.529Z,10.08
2018-08-16T03:06:06.769Z,9.68
2018-08-16T03:08:34.868Z,12.03
2018-08-16T03:11:02.933Z,12.05
2018-08-16T03:13:30.997Z,11.43
2018-08-16T03:15:59.104Z,11.53
2018-08-16T03:18:27.165Z,13.90
2018-08-16T03:20:55.253Z,11.40
2018-08-16T03:23:23.313Z,18.82
2018-08-16T03:25:51.364Z,10.60
2018-08-16T03:28:19.420Z,7.87
2018-08-16T03:30:47.464Z,9.78
2018-08-16T03:33:15.599Z,12.63
2018-08-16T03:35:43.648Z,6.33
2018-08-16T03:38:11.709Z,10.70
2018-08-16T03:40:39.774Z,9.90
2018-08-16T03:43:07.837Z,11.57
2018-08-16T03:45:35.892Z,10.32
2018-08-16T03:48:04.064Z,11.15
2018-08-16T03:50:32.064Z,8.85
2018-08-16T03:53:00.224Z,10.58
2018-08-16T03:55:28.452Z,11.25
2018-08-16T03:57:56.540Z,10.10
2018-08-16T04:00:24.584Z,13.15
2018-08-16T04:02:52.642Z,12.50
2018-08-16T04:05:20.695Z,11.28
2018-08-16T04:07:48.830Z,11.25
2018-08-16T04:10:16.949Z,12.35
2018-08-16T04:12:45.021Z,9.53
2018-08-16T04:15:13.119Z,12.95
2018-08-16T04:17:41.165Z,10.95
2018-08-16T04:20:09.213Z,9.43
2018-08-16T04:22:37.269Z,10.70
2018-08-16T04:25:05.338Z,9.25
2018-08-16T04:27:33.388Z,8.50
2018-08-16T04:30:01.495Z,12.95
2018-08-16T04:32:29.581Z,10.03
2018-08-16T04:34:57.632Z,9.38
2018-08-16T04:37:25.732Z,10.10
2018-08-16T04:39:53.931Z,12.03
2018-08-16T04:42:21.989Z,11.05
2018-08-16T04:44:50.057Z,13.75
2018-08-16T04:47:18.116Z,12.13
2018-08-16T04:49:46.177Z,13.95
2018-08-16T04:52:14.229Z,12.53
2018-08-16T04:54:42.296Z,9.88
2018-08-16T04:57:10.337Z,11.95
2018-08-16T04:59:38.709Z,10.60
2018-08-16T05:02:06.740Z,10.90
2018-08-16T05:04:34.856Z,10.98
2018-08-16T05:07:02.910Z,12.90
2018-08-16T05:09:31.048Z,13.45
2018-08-16T05:11:59.141Z,14.93
2018-08-16T05:14:27.217Z,13.08
2018-08-16T05:16:55.277Z,11.30
2018-08-16T05:19:23.347Z,17.50
2018-08-16T05:21:51.469Z,16.07
2018-08-16T05:24:19.504Z,15.88
2018-08-16T05:29:22.308Z,16.93
2018-08-16T05:31:50.362Z,18.48
2018-08-16T05:34:18.421Z,14.47
2018-08-16T05:36:46.492Z,14.93
2018-08-16T05:39:20.981Z,20.50
2018-08-16T05:41:49.152Z,19.15
2018-08-16T05:44:17.200Z,18.67
2018-08-16T05:46:45.265Z,13.95
2018-08-16T05:49:13.327Z,16.52
2018-08-16T05:51:41.492Z,15.70
2018-08-16T05:54:09.580Z,21.93
2018-08-16T05:56:37.635Z,19.60
2018-08-16T05:59:05.704Z,16.65
2018-08-16T06:01:33.768Z,18.60
2018-08-16T06:04:01.837Z,20.02
2018-08-16T06:06:29.897Z,19.73
2018-08-16T06:08:57.971Z,18.87
2018-08-16T06:11:26.013Z,17.30
2018-08-16T06:13:54.108Z,15.43
2018-08-16T06:16:22.224Z,18.48
2018-08-16T06:18:50.322Z,17.20
2018-08-16T06:21:18.380Z,16.80
2018-08-16T06:23:46.456Z,21.70
2018-08-16T06:26:21.320Z,17.15
2018-08-16T06:28:49.414Z,23.30
2018-08-16T06:31:17.585Z,14.15
2018-08-16T06:33:45.804Z,13.78
2018-08-16T06:36:13.893Z,16.50
2018-08-16T06:38:41.966Z,10.18
2018-08-16T06:41:10.025Z,10.00
2018-08-16T06:43:38.081Z,14.98
2018-08-16T06:46:06.224Z,10.82
2018-08-16T06:48:34.247Z,14.83
2018-08-16T06:51:02.369Z,8.65
2018-08-16T06:53:30.420Z,8.80
2018-08-16T06:55:58.516Z,9.65
2018-08-16T06:58:26.574Z,8.63
2018-08-16T07:00:54.676Z,11.70
2018-08-16T07:03:22.746Z,12.40
2018-08-16T07:05:50.814Z,11.28
2018-08-16T07:08:18.876Z,6.72
2018-08-16T07:10:46.936Z,7.80
2018-08-16T07:13:15.037Z,6.17
2018-08-16T07:15:43.085Z,8.43
2018-08-16T07:18:11.153Z,10.10
2018-08-16T07:20:39.238Z,6.30
2018-08-16T07:23:07.377Z,11.50
2018-08-16T07:25:35.442Z,8.20
2018-08-16T07:28:03.652Z,5.23
2018-08-16T07:30:31.713Z,5.93
2018-08-16T07:32:59.776Z,14.63
2018-08-16T07:35:27.828Z,7.87
2018-08-16T07:37:55.886Z,7.63
2018-08-16T07:40:23.938Z,7.07
2018-08-16T07:42:51.998Z,5.20
2018-08-16T07:45:20.088Z,7.13
2018-08-16T07:47:48.140Z,16.83
2018-08-16T07:50:16.244Z,7.97
2018-08-16T07:52:44.311Z,7.10
2018-08-16T07:55:12.421Z,4.70
2018-08-16T07:57:40.518Z,4.93
2018-08-16T08:00:11.977Z,4.00
2018-08-16T08:02:40.113Z,3.83
2018-08-16T08:05:08.146Z,6.27
2018-08-16T08:07:36.200Z,4.50
2018-08-16T08:10:04.743Z,5.23
2018-08-16T08:12:32.811Z,4.47
2018-08-16T08:15:00.868Z,6.07
2018-08-16T08:17:28.934Z,6.53
2018-08-16T08:19:57.017Z,3.50
2018-08-16T08:22:25.113Z,5.40
2018-08-16T08:24:53.232Z,3.93
2018-08-16T08:27:21.301Z,6.20
2018-08-16T08:29:49.392Z,3.90
2018-08-16T08:32:17.487Z,3.97
2018-08-16T08:34:45.588Z,5.00
2018-08-16T08:37:25.153Z,5.07
2018-08-16T08:39:53.217Z,6.03
2018-08-16T08:42:21.297Z,5.03
2018-08-16T08:44:49.671Z,3.70
2018-08-16T08:47:17.728Z,5.20
2018-08-16T08:49:45.845Z,3.90
2018-08-16T08:52:13.901Z,4.23
2018-08-16T08:54:54.792Z,3.60
2018-08-16T08:57:35.060Z,4.70
2018-08-16T09:00:03.141Z,5.20
2018-08-16T09:02:31.296Z,4.07
2018-08-16T09:04:59.348Z,4.80
2018-08-16T09:07:27.389Z,3.93
2018-08-16T09:11:07.069Z,7.10
2018-08-16T09:13:46.728Z,3.10
2018-08-16T09:16:18.073Z,3.70
2018-08-16T09:18:46.138Z,3.70
2018-08-16T09:21:14.668Z,3.97
2018-08-16T09:23:42.750Z,6.43
2018-08-16T09:26:16.427Z,8.53
2018-08-16T09:28:44.531Z,10.83
2018-08-16T09:31:24.937Z,5.13
2018-08-16T09:34:24.659Z,5.70
2018-08-16T09:36:52.717Z,4.90
2018-08-16T09:39:20.835Z,4.50
2018-08-16T09:41:55.513Z,7.33
2018-08-16T09:44:23.570Z,4.83
2018-08-16T09:47:05.051Z,5.07
2018-08-16T09:49:35.219Z,5.27
2018-08-16T09:52:03.686Z,4.70
2018-08-16T09:54:31.791Z,3.87
2018-08-16T09:57:00.969Z,5.00
2018-08-16T09:59:29.021Z,4.23
2018-08-16T10:01:57.119Z,5.23
2018-08-16T10:04:25.163Z,5.20
2018-08-16T10:06:53.238Z,4.30
2018-08-16T10:09:22.547Z,7.00
2018-08-16T10:11:50.809Z,4.10
2018-08-16T10:14:19.200Z,3.97
2018-08-16T10:16:47.260Z,4.50
2018-08-16T10:19:15.344Z,3.70
2018-08-16T10:21:43.473Z,3.97
2018-08-16T10:24:11.550Z,3.73
2018-08-16T10:26:39.621Z,4.77
2018-08-16T10:29:08.220Z,4.07
2018-08-16T10:31:36.280Z,3.60
2018-08-16T10:34:04.600Z,3.70
2018-08-16T10:36:32.686Z,3.60
2018-08-16T10:39:00.732Z,5.47
2018-08-16T10:41:29.272Z,3.43
2018-08-16T10:43:57.455Z,5.43
2018-08-16T10:46:25.636Z,6.13
2018-08-16T10:48:53.882Z,3.80
2018-08-16T10:51:22.204Z,4.23
2018-08-16T10:53:50.248Z,3.37
2018-08-16T10:56:18.304Z,5.67
2018-08-16T10:58:46.361Z,3.93
2018-08-16T11:01:14.460Z,2.60
2018-08-16T11:03:42.482Z,6.10
2018-08-16T11:06:10.857Z,4.90
2018-08-16T11:08:39.054Z,3.90
2018-08-16T11:11:07.296Z,6.50
2018-08-16T11:13:35.380Z,3.80
2018-08-16T11:16:03.566Z,3.50
2018-08-16T11:18:32.002Z,4.07
2018-08-16T11:21:00.058Z,3.90
2018-08-16T11:23:28.125Z,3.30
2018-08-16T11:25:56.185Z,3.15
2018-08-16T11:28:24.232Z,4.10
2018-08-16T11:30:52.288Z,3.70
2018-08-16T11:33:20.340Z,3.87
2018-08-16T11:35:48.392Z,3.23
2018-08-16T11:38:16.440Z,5.80
2018-08-16T11:40:44.548Z,6.50
2018-08-16T11:43:12.878Z,3.30
2018-08-16T11:45:41.093Z,2.95
2018-08-16T11:48:09.514Z,3.90
2018-08-16T11:50:37.557Z,3.00
2018-08-16T11:53:05.657Z,5.30
2018-08-16T11:55:33.688Z,3.35
2018-08-16T11:58:01.734Z,5.23
2018-08-16T12:00:29.829Z,3.67
2018-08-16T12:02:57.885Z,3.30
2018-08-16T12:05:26.031Z,3.73
2018-08-16T12:07:54.095Z,3.67
2018-08-16T12:10:22.369Z,3.02
2018-08-16T12:12:50.416Z,3.80
2018-08-16T12:15:18.510Z,3.57
2018-08-16T12:17:46.541Z,3.27
2018-08-16T12:20:14.600Z,3.77
2018-08-16T12:22:42.649Z,7.40
2018-08-16T12:25:10.710Z,7.80
2018-08-16T12:27:38.786Z,5.53
2018-08-16T12:30:07.960Z,5.83
2018-08-16T12:32:36.017Z,5.40
2018-08-16T12:35:05.112Z,3.07
2018-08-16T12:37:33.299Z,4.87
2018-08-16T12:40:01.378Z,4.27
2018-08-16T12:42:29.434Z,3.60
2018-08-16T12:44:57.494Z,3.43
2018-08-16T12:47:25.591Z,3.40
2018-08-16T12:49:53.606Z,3.30
2018-08-16T12:52:21.651Z,3.33
2018-08-16T12:54:49.950Z,2.70
2018-08-16T12:57:18.007Z,3.23
2018-08-16T12:59:46.062Z,3.10
2018-08-16T13:02:14.105Z,4.37
2018-08-16T13:04:42.209Z,2.93
2018-08-16T13:07:10.257Z,9.53
2018-08-16T13:09:38.341Z,3.27
2018-08-16T13:12:06.589Z,3.27
2018-08-16T13:14:34.668Z,4.90
2018-08-16T13:17:02.729Z,3.40
2018-08-16T13:19:30.775Z,3.37
2018-08-16T13:21:58.821Z,3.00
2018-08-16T13:24:26.877Z,7.50
2018-08-16T13:26:55.119Z,4.13
2018-08-16T13:29:23.172Z,4.60
2018-08-16T13:31:51.216Z,3.20
2018-08-16T13:34:19.301Z,4.10
2018-08-16T13:36:47.357Z,3.63
2018-08-16T13:39:15.412Z,4.10
2018-08-16T13:41:43.460Z,5.90
2018-08-16T13:44:11.541Z,3.30
2018-08-16T13:46:39.669Z,3.30
2018-08-16T13:49:08.205Z,3.30
2018-08-16T13:51:36.506Z,3.37
2018-08-16T13:54:04.685Z,3.30
2018-08-16T13:56:32.772Z,4.27
2018-08-16T13:59:00.876Z,3.73
2018-08-16T14:01:28.928Z,3.30
2018-08-16T14:04:00.373Z,3.40
2018-08-16T14:06:28.645Z,5.80
2018-08-16T14:08:56.713Z,3.37
2018-08-16T14:11:24.850Z,5.93
2018-08-16T14:13:52.966Z,4.43
2018-08-16T14:16:21.028Z,4.80
2018-08-16T14:18:49.102Z,6.00
2018-08-16T14:21:17.172Z,5.20
2018-08-16T14:23:45.232Z,3.40
2018-08-16T14:26:13.582Z,3.47
2018-08-16T14:28:41.651Z,3.83
2018-08-16T14:31:09.694Z,4.30
2018-08-16T14:33:37.835Z,4.73
2018-08-16T14:36:06.178Z,5.53
2018-08-16T14:38:34.480Z,6.83
2018-08-16T14:41:02.520Z,3.30
2018-08-16T14:43:30.560Z,4.30
2018-08-16T14:45:58.658Z,3.95
2018-08-16T14:48:26.705Z,6.13
2018-08-16T14:50:54.756Z,8.30
2018-08-16T14:53:22.821Z,3.17
2018-08-16T14:55:50.904Z,6.73
2018-08-16T14:58:19.033Z,3.30
2018-08-16T15:00:47.266Z,3.50
2018-08-16T15:03:15.308Z,2.90
2018-08-16T15:05:43.376Z,4.10
2018-08-16T15:08:11.429Z,7.60
2018-08-16T15:10:39.528Z,4.63
2018-08-16T15:13:07.554Z,4.13
2018-08-16T15:15:35.762Z,4.13
2018-08-16T15:18:03.793Z,4.37
2018-08-16T15:20:31.880Z,3.70
2018-08-16T15:23:00.037Z,4.10
2018-08-16T15:25:28.036Z,3.33
2018-08-16T15:27:56.141Z,15.40
2018-08-16T15:30:24.365Z,4.33
2018-08-16T15:32:52.416Z,5.53
2018-08-16T15:35:20.472Z,5.63
2018-08-16T15:40:23.289Z,4.50
2018-08-16T15:42:51.472Z,3.50
2018-08-16T15:45:19.534Z,4.37
2018-08-16T15:47:47.582Z,6.90
2018-08-16T15:50:15.712Z,3.83
2018-08-16T15:52:43.765Z,5.80
2018-08-16T15:55:11.884Z,3.43
2018-08-16T15:57:39.937Z,4.63
2018-08-16T16:00:10.860Z,4.60
2018-08-16T16:02:45.788Z,5.27
2018-08-16T16:05:13.858Z,3.40
2018-08-16T16:07:42.000Z,4.80
2018-08-16T16:10:10.445Z,6.83
2018-08-16T16:12:38.559Z,3.37
2018-08-16T16:15:08.309Z,4.50
2018-08-16T16:17:36.373Z,4.67
2018-08-16T16:20:05.216Z,4.73
2018-08-16T16:22:33.293Z,4.17
2018-08-16T16:25:01.378Z,3.53
2018-08-16T16:27:29.446Z,3.37
2018-08-16T16:29:57.514Z,5.10
2018-08-16T16:32:25.581Z,5.73
2018-08-16T16:34:53.645Z,5.53
2018-08-16T16:37:22.205Z,5.00
2018-08-16T16:39:50.590Z,5.10
2018-08-16T16:42:18.665Z,4.60
2018-08-16T16:44:47.022Z,4.95
2018-08-16T16:47:15.098Z,4.60
2018-08-16T16:49:43.167Z,4.30
2018-08-16T16:52:11.745Z,3.72
2018-08-16T16:54:39.828Z,5.92
2018-08-16T16:57:08.214Z,4.05
2018-08-16T16:59:36.444Z,3.60
2018-08-16T17:02:04.544Z,9.50
2018-08-16T17:04:32.719Z,7.08
2018-08-16T17:07:00.790Z,5.67
2018-08-16T17:09:28.848Z,4.67
2018-08-16T17:12:03.458Z,7.72
2018-08-16T17:14:31.604Z,4.33
2018-08-16T17:17:00.090Z,3.37
2018-08-16T17:19:28.292Z,5.55
2018-08-16T17:21:56.478Z,4.53
2018-08-16T17:24:24.608Z,8.10
2018-08-16T17:26:52.881Z,7.77
2018-08-16T17:29:20.932Z,4.70
2018-08-16T17:31:49.232Z,5.30
2018-08-16T17:34:17.284Z,6.65
2018-08-16T17:36:45.419Z,5.65
2018-08-16T17:39:13.433Z,3.77
2018-08-16T17:41:41.550Z,4.87
2018-08-16T17:44:10.321Z,5.45
2018-08-16T17:46:38.411Z,4.12
2018-08-16T17:49:06.743Z,5.83
2018-08-16T17:51:34.851Z,7.62
2018-08-16T17:54:03.177Z,6.17
2018-08-16T17:56:31.251Z,5.42
2018-08-16T17:58:59.321Z,5.37
2018-08-16T18:01:27.395Z,5.20
2018-08-16T18:03:56.237Z,5.25
2018-08-16T18:06:24.388Z,5.62
2018-08-16T18:08:52.484Z,5.97
2018-08-16T18:11:20.564Z,4.00
2018-08-16T18:13:48.637Z,6.00
2018-08-16T18:16:18.628Z,8.98
2018-08-16T18:18:46.679Z,5.80
2018-08-16T18:21:15.013Z,7.05
2018-08-16T18:23:44.463Z,5.22
2018-08-16T18:26:12.566Z,7.17
2018-08-16T18:28:40.629Z,5.03
2018-08-16T18:31:08.818Z,6.30
2018-08-16T18:33:37.123Z,12.03
2018-08-16T18:36:05.532Z,9.45
2018-08-16T18:38:33.856Z,7.00
2018-08-16T18:41:01.932Z,7.30
2018-08-16T18:43:30.000Z,7.40
2018-08-16T18:45:58.072Z,5.05
2018-08-16T18:48:26.761Z,5.35
2018-08-16T18:50:54.922Z,4.20
2018-08-16T18:53:23.036Z,4.67
2018-08-16T18:55:51.098Z,4.50
2018-08-16T18:58:19.178Z,6.67
2018-08-16T19:00:47.261Z,10.03
2018-08-16T19:03:15.353Z,5.75
2018-08-16T19:05:43.870Z,6.17
2018-08-16T19:08:11.873Z,7.37
2018-08-16T19:10:40.011Z,5.95
2018-08-16T19:13:08.101Z,5.58
2018-08-16T19:15:36.334Z,4.75
2018-08-16T19:18:04.716Z,5.67
2018-08-16T19:20:32.854Z,7.58
2018-08-16T19:23:00.916Z,4.62
2018-08-16T19:25:29.062Z,7.30
2018-08-16T19:27:57.116Z,9.20
2018-08-16T19:30:25.484Z,5.87
2018-08-16T19:32:53.603Z,5.97
2018-08-16T19:35:21.762Z,9.08
2018-08-16T19:37:49.869Z,5.62
2018-08-16T19:40:19.372Z,5.58
2018-08-16T19:42:47.460Z,7.58
2018-08-16T19:45:15.519Z,6.15
2018-08-16T19:47:43.797Z,6.80
2018-08-16T19:50:12.373Z,13.72
2018-08-16T19:52:40.713Z,23.00
2018-08-16T19:55:09.100Z,16.00
2018-08-16T19:57:38.042Z,8.95
2018-08-16T20:00:07.525Z,10.58
2018-08-16T20:02:35.915Z,10.03
2018-08-16T20:05:04.057Z,6.72
2018-08-16T20:07:32.322Z,5.90
2018-08-16T20:10:00.404Z,6.87
2018-08-16T20:12:28.478Z,5.28
2018-08-16T20:14:56.557Z,4.87
2018-08-16T20:17:24.719Z,6.40
2018-08-16T20:19:52.914Z,5.03
2018-08-16T20:22:21.317Z,11.35
2018-08-16T20:24:49.915Z,5.33
2018-08-16T20:27:17.973Z,6.42
2018-08-16T20:29:46.792Z,5.53
2018-08-16T20:32:15.388Z,8.98
2018-08-16T20:34:43.452Z,16.93
2018-08-16T20:37:11.497Z,13.68
2018-08-16T20:39:39.808Z,11.35
2018-08-16T20:42:07.893Z,8.30
2018-08-16T20:44:36.141Z,5.40
2018-08-16T20:47:04.189Z,6.30
2018-08-16T20:49:32.246Z,13.13
2018-08-16T20:52:00.586Z,5.45
2018-08-16T20:54:28.655Z,4.70
2018-08-16T20:56:56.725Z,5.10
2018-08-16T20:59:24.822Z,9.08
2018-08-16T21:01:52.904Z,8.53
2018-08-16T21:04:20.941Z,5.05
2018-08-16T21:06:49.073Z,5.28
2018-08-16T21:09:17.165Z,5.65
2018-08-16T21:11:45.243Z,5.65
2018-08-16T21:14:13.331Z,9.98
2018-08-16T21:16:41.357Z,5.83
2018-08-16T21:19:09.420Z,7.20
2018-08-16T21:21:37.528Z,7.95
2018-08-16T21:24:05.729Z,6.87
2018-08-16T21:26:33.856Z,6.22
2018-08-16T21:29:01.943Z,7.60
2018-08-16T21:31:29.977Z,10.30
2018-08-16T21:33:58.046Z,11.65
2018-08-16T21:36:26.104Z,14.10
2018-08-16T21:38:54.148Z,9.45
2018-08-16T21:41:22.733Z,6.53
2018-08-16T21:43:51.087Z,9.55
2018-08-16T21:46:19.214Z,8.83
2018-08-16T21:48:47.265Z,7.15
2018-08-16T21:51:15.316Z,7.00
2018-08-16T21:53:43.364Z,6.97
2018-08-16T21:56:11.415Z,5.80
2018-08-16T21:58:39.787Z,6.47
2018-08-16T22:01:08.069Z,7.70
2018-08-16T22:03:36.124Z,6.55
2018-08-16T22:06:08.235Z,6.08
2018-08-16T22:08:42.484Z,5.92
2018-08-16T22:11:10.953Z,7.17
2018-08-16T22:13:39.203Z,6.83
2018-08-16T22:16:07.331Z,5.10
2018-08-16T22:18:35.531Z,5.97
2018-08-16T22:21:03.602Z,7.05
2018-08-16T22:23:31.644Z,10.72
2018-08-16T22:25:59.932Z,6.35
2018-08-16T22:28:27.945Z,8.13
2018-08-16T22:30:56.252Z,8.15
2018-08-16T22:33:24.300Z,6.53
2018-08-16T22:35:52.352Z,6.92
2018-08-16T22:38:20.400Z,8.90
2018-08-16T22:40:48.452Z,7.22
2018-08-16T22:43:16.567Z,7.90
2018-08-16T22:45:44.609Z,7.55
2018-08-16T22:48:12.665Z,6.28
2018-08-16T22:50:47.158Z,7.60
2018-08-16T22:53:15.196Z,7.97
2018-08-16T22:55:43.256Z,12.78
2018-08-16T22:58:11.309Z,6.72
2018-08-16T23:00:39.400Z,8.38
2018-08-16T23:03:07.433Z,11.63
2018-08-16T23:05:35.484Z,7.65
2018-08-16T23:08:03.541Z,7.85
2018-08-16T23:10:31.596Z,5.75
2018-08-16T23:12:59.836Z,7.78
2018-08-16T23:15:27.916Z,9.30
2018-08-16T23:17:55.932Z,6.87
2018-08-16T23:20:23.993Z,6.62
2018-08-16T23:22:52.036Z,6.10
2018-08-16T23:25:20.099Z,6.62
2018-08-16T23:27:48.236Z,8.35
2018-08-16T23:30:16.636Z,7.58
2018-08-16T23:32:44.731Z,7.30
2018-08-16T23:35:13.003Z,8.78
2018-08-16T23:37:41.088Z,8.23
2018-08-16T23:40:11.026Z,7.60
2018-08-16T23:42:39.316Z,6.85
2018-08-16T23:45:07.873Z,7.15
2018-08-16T23:47:36.824Z,7.62
2018-08-16T23:50:06.901Z,7.08
2018-08-16T23:52:34.968Z,8.68
2018-08-16T23:55:03.030Z,11.60
2018-08-16T23:57:31.084Z,8.20
2018-08-16T23:59:59.132Z,9.88
